Time;durP1;ratioP1;P1;durP2;ratioP2;P2;SDS_P1;SDS_P2;PMS_P1;PMS_P2;Temp;Humidity;BMP_temperature;BMP_pressure;BME280_temperature;BME280_humidity;BME280_pressure;Samples;Min_cycle;Max_cycle;Signal;HPM_P1;HPM_P2
2022/10/14 00:01:06;;;;;;;22.73;14.02;;;;;;;11.14;67.07;100213.16;4468451;32;34859;-69
2022/10/14 00:03:35;;;;;;;22.80;12.52;;;;;;;11.05;67.24;100205.38;4459746;32;34263;-69
2022/10/14 00:06:08;;;;;;;21.80;12.90;;;;;;;10.35;69.70;100203.63;4484399;32;34681;-70
2022/10/14 00:08:36;;;;;;;21.05;13.25;;;;;;;10.33;70.08;100202.22;4483395;32;34149;-69
2022/10/14 00:11:09;;;;;;;21.77;13.43;;;;;;;10.01;71.21;100194.38;4484358;31;33986;-82
2022/10/14 00:13:38;;;;;;;22.35;13.45;;;;;;;10.31;70.57;100197.00;4484237;32;35483;-68
2022/10/14 00:16:06;;;;;;;20.45;13.25;;;;;;;10.78;68.98;100199.69;4484416;32;33905;-69
2022/10/14 00:18:33;;;;;;;21.33;12.80;;;;;;;10.71;68.50;100193.53;4484044;32;33587;-69
2022/10/14 00:21:02;;;;;;;21.25;13.10;;;;;;;10.99;67.64;100192.78;4484177;32;33762;-70
2022/10/14 00:23:29;;;;;;;19.87;12.65;;;;;;;10.99;67.65;100203.66;4483129;32;34936;-82
2022/10/14 00:25:56;;;;;;;23.30;13.05;;;;;;;10.79;68.51;100201.31;4484424;32;33886;-69
2022/10/14 00:28:29;;;;;;;22.55;13.55;;;;;;;10.74;68.56;100203.13;4484271;32;33660;-68
2022/10/14 00:30:58;;;;;;;21.33;13.20;;;;;;;10.65;69.07;100199.94;4484087;32;34020;-69
2022/10/14 00:33:26;;;;;;;19.80;12.80;;;;;;;10.35;70.19;100197.38;4484362;32;35136;-67
2022/10/14 00:36:02;;;;;;;20.30;12.68;;;;;;;10.27;70.76;100201.22;4482887;32;34582;-69
2022/10/14 00:38:33;;;;;;;20.90;12.93;;;;;;;10.61;69.54;100185.19;4482821;32;33436;-70
2022/10/14 00:41:02;;;;;;;21.62;12.95;;;;;;;10.62;68.80;100187.66;4483941;32;33485;-68
2022/10/14 00:43:58;;;;;;;21.37;13.00;;;;;;;10.76;68.14;100196.37;4484266;32;34148;-70
2022/10/14 00:46:28;;;;;;;21.77;12.88;;;;;;;10.54;69.51;100187.19;4482615;32;31948;-69
2022/10/14 00:48:59;;;;;;;19.87;12.32;;;;;;;10.71;68.41;100192.72;4484163;32;34063;-69
2022/10/14 00:51:27;;;;;;;21.50;13.40;;;;;;;10.75;68.66;100186.56;4483848;32;33897;-69
2022/10/14 00:53:54;;;;;;;20.52;13.20;;;;;;;10.46;69.62;100186.50;4482570;32;34174;-68
2022/10/14 00:56:25;;;;;;;22.98;13.48;;;;;;;10.81;68.56;100190.22;4484188;32;33449;-69
2022/10/14 00:58:53;;;;;;;21.33;13.85;;;;;;;10.74;68.41;100186.84;4482603;32;34687;-69
2022/10/14 01:01:20;;;;;;;20.45;13.07;;;;;;;10.67;68.75;100182.34;4471208;32;34750;-72
2022/10/14 01:03:48;;;;;;;19.62;13.18;;;;;;;10.55;69.52;100186.97;4468115;32;33781;-70
2022/10/14 01:06:47;;;;;;;20.62;13.18;;;;;;;10.72;69.24;100180.81;4467248;32;33910;-69
2022/10/14 01:09:25;;;;;;;21.98;13.93;;;;;;;10.80;68.53;100180.44;4467964;32;34440;-69
2022/10/14 01:12:13;;;;;;;23.17;14.02;;;;;;;10.78;68.62;100185.28;4468112;32;34076;-68
2022/10/14 01:14:58;;;;;;;22.73;13.98;;;;;;;10.44;69.99;100183.19;4466569;32;34973;-69
2022/10/14 01:17:44;;;;;;;19.67;12.43;;;;;;;10.36;70.74;100180.03;4468058;32;34228;-70
2022/10/14 01:20:22;;;;;;;20.37;13.07;;;;;;;10.16;71.36;100185.78;4467951;32;34502;-72
2022/10/14 01:23:23;;;;;;;20.15;12.63;;;;;;;10.39;70.98;100177.69;4467759;32;34659;-69
2022/10/14 01:25:55;;;;;;;22.55;13.15;;;;;;;10.67;69.92;100185.06;4466846;32;32958;-71
2022/10/14 01:28:45;;;;;;;20.83;12.93;;;;;;;10.76;68.92;100177.38;4467618;32;33793;-72
2022/10/14 01:31:21;;;;;;;21.90;13.10;;;;;;;10.72;68.73;100180.81;4468008;32;34319;-75
2022/10/14 01:33:52;;;;;;;25.95;13.30;;;;;;;10.71;68.74;100166.41;4466552;32;33740;-69
2022/10/14 01:36:35;;;;;;;28.58;15.60;;;;;;;10.69;68.26;100168.56;4466557;32;34183;-69
2022/10/14 01:39:10;;;;;;;33.13;17.12;;;;;;;10.68;68.39;100167.72;4467571;32;33540;-69
2022/10/14 01:41:42;;;;;;;30.23;16.08;;;;;;;10.66;68.78;100167.13;4466719;32;34275;-69
2022/10/14 01:44:11;;;;;;;31.55;17.42;;;;;;;10.54;69.13;100160.06;4465903;32;33996;-82
2022/10/14 01:46:42;;;;;;;31.75;17.30;;;;;;;10.24;69.83;100161.84;4466630;32;34205;-84
2022/10/14 01:49:27;;;;;;;28.33;16.70;;;;;;;10.22;70.32;100157.72;4467706;32;34958;-84
2022/10/14 01:51:58;;;;;;;32.75;16.85;;;;;;;10.40;70.02;100151.38;4466597;32;34294;-70
2022/10/14 01:54:32;;;;;;;27.33;16.52;;;;;;;10.52;69.53;100157.62;4466014;32;34198;-69
2022/10/14 01:57:02;;;;;;;31.33;18.83;;;;;;;10.55;69.34;100157.12;4466381;32;33760;-70
2022/10/14 01:59:32;;;;;;;33.40;17.00;;;;;;;10.62;68.96;100155.09;4466707;32;34813;-69
2022/10/14 02:02:00;;;;;;;30.05;16.23;;;;;;;10.51;69.37;100153.22;4466147;32;33660;-81
2022/10/14 02:04:28;;;;;;;26.80;15.32;;;;;;;10.49;69.24;100158.06;4466076;32;33753;-70
2022/10/14 02:07:05;;;;;;;25.77;15.75;;;;;;;10.34;69.58;100160.44;4467135;32;34989;-81
2022/10/14 02:09:45;;;;;;;26.37;15.50;;;;;;;10.67;68.45;100163.38;4466027;32;33664;-69
2022/10/14 02:12:37;;;;;;;27.23;16.73;;;;;;;10.49;69.30;100157.25;4467438;32;34505;-83
2022/10/14 02:15:16;;;;;;;26.37;16.15;;;;;;;10.36;70.03;100155.63;4481205;32;34095;-69
2022/10/14 02:17:48;;;;;;;25.33;15.18;;;;;;;10.02;71.10;100158.91;4484088;32;33899;-69
2022/10/14 02:20:27;;;;;;;26.35;15.18;;;;;;;10.31;70.30;100163.66;4483968;32;33869;-82
2022/10/14 02:23:18;;;;;;;27.73;15.70;;;;;;;10.16;70.30;100153.25;4484156;32;33803;-69
2022/10/14 02:25:47;;;;;;;26.25;16.08;;;;;;;10.46;69.10;100158.56;4484099;32;33669;-70
2022/10/14 02:28:17;;;;;;;25.70;15.73;;;;;;;10.53;68.59;100151.09;4483385;32;33825;-69
2022/10/14 02:30:51;;;;;;;23.50;14.85;;;;;;;10.44;68.75;100145.22;4484610;32;34108;-69
2022/10/14 02:33:20;;;;;;;28.45;15.68;;;;;;;10.57;68.44;100151.47;4483884;32;34272;-70
2022/10/14 02:35:48;;;;;;;25.90;15.38;;;;;;;10.17;69.98;100150.31;4483880;32;33840;-85
2022/10/14 02:38:18;;;;;;;24.52;15.00;;;;;;;10.35;69.67;100152.09;4483957;32;34243;-69
2022/10/14 02:40:47;;;;;;;25.05;14.73;;;;;;;9.96;71.40;100150.88;4483789;32;34102;-70
2022/10/14 02:43:15;;;;;;;21.73;14.32;;;;;;;9.82;71.81;100152.97;4482587;32;34367;-71
2022/10/14 02:45:43;;;;;;;26.20;15.18;;;;;;;9.87;71.79;100147.69;4483861;32;34188;-70
2022/10/14 02:48:11;;;;;;;21.30;13.70;;;;;;;9.97;71.68;100149.81;4485035;32;33968;-70
2022/10/14 02:50:40;;;;;;;22.50;14.63;;;;;;;10.10;71.08;100146.06;4483826;32;34006;-68
2022/10/14 02:53:07;;;;;;;19.83;12.88;;;;;;;10.52;69.20;100146.75;4483511;32;33274;-69
2022/10/14 02:55:34;;;;;;;23.10;14.30;;;;;;;10.32;69.97;100141.69;4485158;32;34784;-69
2022/10/14 02:58:02;;;;;;;20.33;13.38;;;;;;;10.41;69.84;100144.88;4477474;32;34090;-69
2022/10/14 03:00:29;;;;;;;22.13;13.70;;;;;;;10.38;70.04;100139.94;4469328;32;33965;-68
2022/10/14 03:02:57;;;;;;;21.98;13.80;;;;;;;10.10;71.04;100138.72;4469192;32;33441;-70
2022/10/14 03:05:25;;;;;;;19.12;12.55;;;;;;;10.15;70.96;100136.16;4467911;32;34760;-69
2022/10/14 03:07:53;;;;;;;21.12;13.23;;;;;;;10.43;70.00;100137.31;4469264;32;34275;-69
2022/10/14 03:10:21;;;;;;;20.30;13.30;;;;;;;10.44;69.04;100147.12;4467785;32;31555;-76
2022/10/14 03:12:50;;;;;;;21.50;13.82;;;;;;;10.52;68.90;100146.75;4468903;32;33518;-69
2022/10/14 03:15:17;;;;;;;22.90;13.45;;;;;;;10.60;68.33;100145.56;4470827;32;33702;-70
2022/10/14 03:17:46;;;;;;;22.77;13.55;;;;;;;10.22;69.59;100146.88;4485016;32;35540;-83
2022/10/14 03:20:16;;;;;;;22.87;14.27;;;;;;;10.33;69.82;100148.78;4485024;32;34045;-81
2022/10/14 03:22:44;;;;;;;22.73;13.80;;;;;;;10.44;69.44;100145.22;4484867;32;33240;-76
2022/10/14 03:25:12;;;;;;;22.50;14.52;;;;;;;10.52;69.85;100148.63;4484831;32;33786;-81
2022/10/14 03:27:40;;;;;;;21.42;13.93;;;;;;;10.77;69.48;100142.91;4475888;32;34084;-68
2022/10/14 03:30:08;;;;;;;22.33;14.30;;;;;;;10.63;70.35;100140.47;4469368;32;33838;-70
2022/10/14 03:32:36;;;;;;;20.88;13.68;;;;;;;10.62;71.07;100140.72;4467877;32;34948;-84
2022/10/14 03:35:06;;;;;;;22.60;14.20;;;;;;;10.52;71.36;100137.78;4469277;32;33959;-74
2022/10/14 03:37:33;;;;;;;22.17;13.73;;;;;;;10.29;72.65;100139.47;4469229;32;34889;-82
2022/10/14 03:40:02;;;;;;;19.87;12.90;;;;;;;10.58;72.11;100139.53;4469003;32;33560;-82
2022/10/14 03:42:30;;;;;;;24.60;14.18;;;;;;;10.48;72.56;100134.72;4468957;32;33890;-69
2022/10/14 03:44:58;;;;;;;18.52;13.13;;;;;;;10.53;72.66;100134.00;4469260;32;34541;-80
2022/10/14 03:47:25;;;;;;;21.10;13.00;;;;;;;10.87;71.86;100130.38;4469021;32;34217;-71
2022/10/14 03:49:53;;;;;;;20.75;12.65;;;;;;;10.81;72.25;100136.75;4469051;32;34159;-83
2022/10/14 03:52:21;;;;;;;21.95;13.15;;;;;;;10.56;73.38;100130.81;4468755;32;33503;-78
2022/10/14 03:54:54;;;;;;;21.02;13.65;;;;;;;10.39;73.81;100131.56;4469232;32;33775;-73
2022/10/14 03:57:22;;;;;;;23.08;14.25;;;;;;;10.44;73.73;100133.56;4468275;32;34976;-69
2022/10/14 03:59:50;;;;;;;19.85;12.60;;;;;;;10.37;74.12;100128.25;4468606;32;33792;-73
2022/10/14 04:02:18;;;;;;;18.98;12.25;;;;;;;10.80;72.63;100120.75;4480611;32;34354;-84
2022/10/14 04:04:46;;;;;;;20.35;12.35;;;;;;;11.04;71.32;100126.91;4483570;32;33948;-69
2022/10/14 04:07:15;;;;;;;18.15;12.05;;;;;;;11.16;70.50;100124.94;4484141;32;35188;-69
2022/10/14 04:09:46;;;;;;;20.95;12.50;;;;;;;11.16;69.85;100127.66;4484170;31;34020;-70
2022/10/14 04:12:14;;;;;;;19.12;12.32;;;;;;;11.05;70.10;100118.50;4483599;32;33290;-69
2022/10/14 04:14:42;;;;;;;21.10;13.02;;;;;;;10.75;71.36;100123.34;4483612;32;34686;-76
2022/10/14 04:17:09;;;;;;;17.48;11.50;;;;;;;10.55;71.86;100113.72;4484534;32;33939;-81
2022/10/14 04:19:37;;;;;;;16.42;11.68;;;;;;;10.96;70.39;100117.25;4484808;32;33921;-85
2022/10/14 04:22:05;;;;;;;21.37;12.90;;;;;;;11.00;69.50;100115.69;4483688;32;33698;-70
2022/10/14 04:24:33;;;;;;;20.67;13.48;;;;;;;10.93;69.44;100117.75;4483867;32;33920;-84
2022/10/14 04:27:01;;;;;;;18.60;12.18;;;;;;;11.10;68.59;100115.06;4482664;32;34140;-69
2022/10/14 04:29:29;;;;;;;18.15;12.23;;;;;;;10.61;70.25;100112.75;4484227;32;33628;-68
2022/10/14 04:31:57;;;;;;;19.83;12.45;;;;;;;10.75;69.84;100118.72;4471605;32;33425;-69
2022/10/14 04:34:25;;;;;;;20.42;13.18;;;;;;;10.84;69.26;100109.16;4468624;32;35305;-69
2022/10/14 04:36:53;;;;;;;20.73;12.32;;;;;;;10.60;70.29;100111.09;4468376;32;35382;-68
2022/10/14 04:39:21;;;;;;;18.10;12.45;;;;;;;10.68;69.72;100109.91;4467612;32;34704;-69
2022/10/14 04:41:48;;;;;;;18.12;12.13;;;;;;;10.39;70.67;100115.28;4468488;32;33311;-69
2022/10/14 04:44:16;;;;;;;18.67;12.30;;;;;;;10.45;70.47;100113.50;4468372;32;35283;-70
2022/10/14 04:46:44;;;;;;;18.23;11.75;;;;;;;10.42;70.45;100109.38;4478891;32;33992;-72
2022/10/14 04:49:13;;;;;;;17.40;12.13;;;;;;;10.66;69.85;100114.75;4484294;32;34152;-78
2022/10/14 04:51:44;;;;;;;23.35;13.23;;;;;;;10.85;68.66;100115.41;4484534;32;33367;-75
2022/10/14 04:54:12;;;;;;;20.50;12.45;;;;;;;10.51;69.37;100120.69;4471779;32;33556;-79
2022/10/14 04:56:40;;;;;;;19.95;11.75;;;;;;;10.48;69.72;100118.47;4468865;32;34302;-78
2022/10/14 04:59:09;;;;;;;22.02;12.73;;;;;;;10.67;68.79;100122.66;4468361;32;34316;-79
2022/10/14 05:01:40;;;;;;;18.27;13.00;;;;;;;10.65;68.80;100119.34;4468449;32;33761;-78
2022/10/14 05:04:07;;;;;;;20.52;12.73;;;;;;;10.28;70.38;100124.25;4467919;32;34576;-82
2022/10/14 05:06:36;;;;;;;20.85;12.35;;;;;;;10.15;70.84;100117.19;4468515;32;35184;-79
2022/10/14 05:09:05;;;;;;;18.10;12.45;;;;;;;10.01;71.52;100113.03;4468061;32;34695;-76
2022/10/14 05:11:32;;;;;;;19.02;11.65;;;;;;;9.98;71.75;100111.63;4479584;32;34294;-78
2022/10/14 05:14:00;;;;;;;23.67;12.05;;;;;;;9.98;72.06;100113.53;4484005;32;34647;-78
2022/10/14 05:16:28;;;;;;;19.83;12.00;;;;;;;9.62;73.40;100115.37;4484155;32;34048;-78
2022/10/14 05:18:56;;;;;;;19.40;12.25;;;;;;;9.33;75.08;100112.50;4483824;32;33540;-78
2022/10/14 05:21:26;;;;;;;57.95;41.67;;;;;;;9.67;73.21;100112.78;4482909;32;31704;-75
2022/10/14 05:23:55;;;;;;;34.67;26.42;;;;;;;9.88;72.69;100113.28;4483750;32;33847;-77
2022/10/14 05:26:22;;;;;;;19.50;12.68;;;;;;;9.94;72.66;100118.59;4469760;32;33899;-78
2022/10/14 05:28:51;;;;;;;20.25;13.60;;;;;;;10.40;70.78;100116.91;4467595;32;34107;-77
2022/10/14 05:31:19;;;;;;;22.17;12.98;;;;;;;10.48;70.46;100123.88;4466945;32;33224;-80
2022/10/14 05:33:48;;;;;;;19.95;12.90;;;;;;;10.75;69.14;100124.16;4467557;32;34099;-78
2022/10/14 05:36:16;;;;;;;19.50;12.70;;;;;;;10.93;68.50;100122.31;4468031;32;34113;-78
2022/10/14 05:38:43;;;;;;;20.62;12.32;;;;;;;10.84;68.71;100130.88;4467582;32;33951;-76
2022/10/14 05:41:11;;;;;;;18.77;12.57;;;;;;;10.79;69.35;100128.03;4467634;32;33406;-77
2022/10/14 05:43:38;;;;;;;19.55;12.65;;;;;;;10.48;71.01;100131.19;4470363;32;33733;-81
2022/10/14 05:46:06;;;;;;;20.08;13.18;;;;;;;10.57;71.09;100132.47;4484038;32;34127;-77
2022/10/14 05:48:34;;;;;;;22.35;13.60;;;;;;;10.62;71.42;100122.53;4483224;32;34301;-77
2022/10/14 05:51:02;;;;;;;20.02;12.57;;;;;;;10.70;71.63;100131.38;4483593;32;33721;-78
2022/10/14 05:53:31;;;;;;;18.40;12.85;;;;;;;10.49;72.70;100132.84;4474851;32;33840;-78
2022/10/14 05:56:04;;;;;;;21.35;14.10;;;;;;;10.09;74.41;100139.00;4478886;32;34306;-78
2022/10/14 05:58:32;;;;;;;25.98;16.10;;;;;;;10.67;72.57;100138.94;4485560;32;34844;-79
2022/10/14 06:01:00;;;;;;;21.40;13.85;;;;;;;10.05;75.49;100147.56;4483956;32;34566;-77
2022/10/14 06:03:28;;;;;;;25.42;15.27;;;;;;;9.89;78.04;100148.25;4473631;32;34748;-76
2022/10/14 06:05:56;;;;;;;23.08;14.60;;;;;;;10.73;74.97;100148.00;4482641;32;33493;-79
2022/10/14 06:08:24;;;;;;;25.12;15.35;;;;;;;11.09;73.97;100151.44;4484634;31;33951;-76
2022/10/14 06:10:52;;;;;;;22.85;15.35;;;;;;;11.36;73.69;100154.38;4478198;32;34121;-82
2022/10/14 06:13:20;;;;;;;27.33;17.12;;;;;;;11.73;72.31;100155.81;4468264;32;34719;-77
2022/10/14 06:15:48;;;;;;;27.13;16.90;;;;;;;12.01;71.49;100161.22;4469604;32;35041;-79
2022/10/14 06:18:16;;;;;;;27.10;16.55;;;;;;;12.16;70.65;100155.19;4473437;32;35204;-83
2022/10/14 06:20:43;;;;;;;24.98;15.45;;;;;;;12.24;69.88;100154.75;4475971;32;33476;-77
2022/10/14 06:23:10;;;;;;;25.80;16.40;;;;;;;12.24;69.25;100165.63;4469001;32;33985;-77
2022/10/14 06:25:39;;;;;;;25.05;14.98;;;;;;;12.58;68.49;100162.03;4470621;32;34406;-75
2022/10/14 06:28:06;;;;;;;27.40;16.05;;;;;;;12.76;68.50;100164.41;4470791;32;34081;-82
2022/10/14 06:30:33;;;;;;;26.12;15.90;;;;;;;12.85;67.98;100165.66;4469953;32;34223;-85
2022/10/14 06:33:01;;;;;;;26.73;16.90;;;;;;;12.89;68.45;100165.94;4470817;32;34061;-81
2022/10/14 06:35:29;;;;;;;28.05;17.55;;;;;;;13.01;69.02;100172.09;4470655;32;34183;-82
2022/10/14 06:37:57;;;;;;;28.15;16.08;;;;;;;13.20;68.21;100169.03;4470484;32;33685;-79
2022/10/14 06:40:25;;;;;;;26.20;15.82;;;;;;;13.18;68.39;100166.56;4470351;32;33535;-79
2022/10/14 06:42:52;;;;;;;27.08;15.23;;;;;;;13.29;68.05;100165.63;4470532;32;34182;-78
2022/10/14 06:45:20;;;;;;;25.10;15.52;;;;;;;13.47;68.40;100164.44;4470281;32;35120;-76
2022/10/14 06:47:47;;;;;;;25.75;15.75;;;;;;;14.09;66.55;100164.97;4475382;32;34837;-78
2022/10/14 06:50:15;;;;;;;21.33;13.43;;;;;;;14.49;64.83;100172.59;4486127;32;33781;-75
2022/10/14 06:52:44;;;;;;;23.58;14.27;;;;;;;14.67;64.46;100167.81;4485995;32;33517;-86
2022/10/14 06:55:12;;;;;;;22.55;13.62;;;;;;;14.67;64.20;100173.28;4486085;32;34951;-80
2022/10/14 06:57:40;;;;;;;22.85;14.82;;;;;;;14.84;63.02;100173.91;4484609;32;33887;-77
2022/10/14 07:00:08;;;;;;;22.75;14.00;;;;;;;14.91;63.47;100168.19;4485985;32;34427;-75
2022/10/14 07:02:36;;;;;;;25.88;14.15;;;;;;;14.93;62.29;100176.94;4484635;32;33790;-79
2022/10/14 07:05:04;;;;;;;25.17;15.65;;;;;;;14.80;63.34;100175.50;4485030;32;35050;-76
2022/10/14 07:07:32;;;;;;;22.30;14.43;;;;;;;15.08;62.54;100176.19;4484388;32;34574;-72
2022/10/14 07:10:02;;;;;;;25.00;14.73;;;;;;;14.97;65.02;100169.84;4485861;31;34372;-80
2022/10/14 07:12:29;;;;;;;23.92;15.07;;;;;;;15.20;64.42;100165.81;4485488;32;34644;-75
2022/10/14 07:14:57;;;;;;;24.45;13.73;;;;;;;15.68;62.10;100173.81;4485944;32;33960;-74
2022/10/14 07:17:24;;;;;;;21.67;13.52;;;;;;;15.43;63.75;100174.62;4486048;32;33725;-76
2022/10/14 07:19:52;;;;;;;19.12;12.60;;;;;;;15.51;64.72;100174.91;4486051;32;33533;-79
2022/10/14 07:22:19;;;;;;;20.62;12.73;;;;;;;16.13;60.87;100170.31;4486123;32;34182;-78
2022/10/14 07:24:47;;;;;;;19.70;13.30;;;;;;;16.02;62.80;100171.41;4485651;32;34256;-76
2022/10/14 07:27:15;;;;;;;21.80;13.68;;;;;;;16.36;62.10;100177.09;4485723;32;33903;-76
2022/10/14 07:29:42;;;;;;;18.73;12.10;;;;;;;16.39;61.49;100182.03;4485782;32;33650;-78
2022/10/14 07:32:10;;;;;;;17.08;11.48;;;;;;;16.58;59.41;100175.97;4484852;32;34119;-81
2022/10/14 07:34:37;;;;;;;16.08;11.18;;;;;;;17.02;57.85;100176.13;4485537;32;34243;-76
2022/10/14 07:37:05;;;;;;;17.75;11.80;;;;;;;17.22;57.34;100171.63;4485623;32;34894;-77
2022/10/14 07:39:32;;;;;;;19.12;12.52;;;;;;;16.99;57.95;100170.34;4484867;32;34456;-88
2022/10/14 07:42:00;;;;;;;18.80;12.15;;;;;;;16.52;59.44;100175.19;4485774;32;33869;-75
2022/10/14 07:44:27;;;;;;;21.08;12.65;;;;;;;16.80;57.91;100171.00;4485823;32;34012;-89
2022/10/14 07:46:55;;;;;;;17.98;11.68;;;;;;;16.89;58.08;100170.41;4485760;32;33888;-80
2022/10/14 07:49:22;;;;;;;16.60;10.48;;;;;;;16.79;58.78;100169.31;4485405;32;33461;-82
2022/10/14 07:51:50;;;;;;;16.55;10.43;;;;;;;16.62;58.59;100168.81;4485431;32;33960;-77
2022/10/14 07:54:21;;;;;;;16.40;10.05;;;;;;;17.06;56.96;100164.56;4484428;32;33954;-79
2022/10/14 07:56:48;;;;;;;14.93;9.98;;;;;;;16.73;57.34;100158.66;4485197;32;33887;-75
2022/10/14 07:59:18;;;;;;;17.70;9.82;;;;;;;16.99;56.35;100165.69;4485648;32;34504;-84
2022/10/14 08:01:49;;;;;;;15.40;9.32;;;;;;;16.99;57.51;100154.72;4485442;32;33986;-78
2022/10/14 08:04:18;;;;;;;19.25;9.93;;;;;;;17.36;55.67;100144.38;4485598;32;34223;-77
2022/10/14 08:06:47;;;;;;;15.85;10.63;;;;;;;17.32;55.94;100152.37;4485587;32;33574;-76
2022/10/14 08:09:15;;;;;;;15.50;9.65;;;;;;;17.60;55.09;100163.69;4485264;32;33517;-78
2022/10/14 08:11:43;;;;;;;14.82;9.60;;;;;;;17.61;54.18;100149.69;4484268;32;34779;-79
2022/10/14 08:14:11;;;;;;;17.85;10.52;;;;;;;17.24;55.79;100154.91;4485674;32;34211;-78
2022/10/14 08:16:38;;;;;;;17.08;10.57;;;;;;;17.26;56.72;100156.25;4485495;32;34624;-78
2022/10/14 08:19:09;;;;;;;17.30;10.27;;;;;;;16.96;58.74;100152.56;4485356;32;33438;-78
2022/10/14 08:21:41;;;;;;;18.27;11.68;;;;;;;17.30;56.73;100149.09;4485473;32;34850;-80
2022/10/14 08:24:09;;;;;;;17.90;10.68;;;;;;;17.54;57.42;100146.47;4485271;32;35077;-79
2022/10/14 08:26:39;;;;;;;17.30;10.30;;;;;;;17.59;57.43;100140.94;4485423;32;33863;-79
2022/10/14 08:29:10;;;;;;;16.02;9.70;;;;;;;18.02;55.96;100141.16;4484180;32;34602;-76
2022/10/14 08:31:38;;;;;;;15.13;9.90;;;;;;;18.20;54.29;100142.34;4485075;32;33553;-78
2022/10/14 08:34:05;;;;;;;15.80;9.30;;;;;;;18.52;53.10;100143.66;4485447;32;33649;-77
2022/10/14 08:36:32;;;;;;;15.02;9.85;;;;;;;18.39;53.12;100149.84;4485304;32;33803;-78
2022/10/14 08:39:00;;;;;;;14.82;9.32;;;;;;;17.94;53.78;100132.72;4480105;32;164423;-78
2022/10/14 08:41:46;;;;;;;16.40;9.90;;;;;;;18.33;52.34;100126.28;4485501;32;33708;-79
2022/10/14 08:44:18;;;;;;;14.45;9.02;;;;;;;17.99;55.13;100135.41;4484923;32;35108;-79
2022/10/14 08:47:00;;;;;;;14.95;9.40;;;;;;;18.04;53.91;100127.94;4485361;32;33889;-77
2022/10/14 08:49:40;;;;;;;15.43;9.68;;;;;;;18.35;52.14;100130.38;4481372;32;33541;-77
2022/10/14 08:52:16;;;;;;;14.60;9.00;;;;;;;17.89;53.22;100133.59;4467451;32;34024;-77
2022/10/14 08:54:47;;;;;;;16.40;10.30;;;;;;;18.43;52.88;100138.00;4467810;32;34102;-77
2022/10/14 08:57:24;;;;;;;18.08;10.15;;;;;;;18.75;51.54;100138.47;4468119;32;33961;-77
2022/10/14 08:59:53;;;;;;;14.90;9.18;;;;;;;19.36;49.34;100145.91;4467923;32;33680;-77
2022/10/14 09:02:42;;;;;;;15.18;8.88;;;;;;;19.88;48.30;100138.50;4471163;32;34718;-74
2022/10/14 09:05:19;;;;;;;15.45;9.70;;;;;;;19.53;49.18;100139.06;4468556;32;35093;-77
2022/10/14 09:07:47;;;;;;;13.80;9.63;;;;;;;19.87;48.73;100139.63;4483914;32;33941;-78
2022/10/14 09:10:32;;;;;;;16.45;9.82;;;;;;;19.72;49.23;100147.31;4483208;32;33575;-76
2022/10/14 09:13:10;;;;;;;17.67;9.73;;;;;;;20.36;48.66;100142.06;4483525;32;33977;-74
2022/10/14 09:15:40;;;;;;;17.98;10.35;;;;;;;19.82;49.54;100136.94;4483303;32;35115;-74
2022/10/14 09:18:27;;;;;;;15.77;9.18;;;;;;;20.39;48.11;100139.53;4483311;32;33790;-71
2022/10/14 09:20:56;;;;;;;16.60;10.45;;;;;;;19.83;50.34;100141.34;4483586;32;33445;-74
2022/10/14 09:23:26;;;;;;;19.52;9.20;;;;;;;19.82;50.02;100150.72;4483360;32;33827;-72
2022/10/14 09:25:57;;;;;;;16.62;10.10;;;;;;;19.95;48.36;100146.38;4484460;32;33965;-73
2022/10/14 09:28:36;;;;;;;14.23;9.50;;;;;;;20.17;49.60;100139.38;4486182;32;34647;-75
2022/10/14 09:31:05;;;;;;;15.27;10.30;;;;;;;20.47;48.38;100147.09;4483694;32;33459;-74
2022/10/14 09:33:38;;;;;;;15.85;10.05;;;;;;;20.69;46.96;100148.31;4480388;32;34028;-72
2022/10/14 09:36:17;;;;;;;20.33;10.75;;;;;;;20.22;50.25;100142.06;4486098;32;35087;-75
2022/10/14 09:38:51;;;;;;;17.67;10.40;;;;;;;20.35;49.21;100146.78;4486213;32;33948;-74
2022/10/14 09:41:22;;;;;;;15.95;9.32;;;;;;;20.58;49.42;100144.97;4485524;32;33344;-78
2022/10/14 09:44:24;;;;;;;15.73;10.40;;;;;;;20.36;48.31;100139.31;4484611;32;34692;-76
2022/10/14 09:46:55;;;;;;;16.52;10.23;;;;;;;20.33;49.51;100138.00;4485199;32;34993;-75
2022/10/14 09:49:31;;;;;;;16.23;9.95;;;;;;;20.02;49.47;100144.06;4484679;32;33842;-75
2022/10/14 09:52:01;;;;;;;17.23;10.50;;;;;;;19.87;50.86;100139.63;4485379;32;33316;-75
2022/10/14 09:54:29;;;;;;;15.13;10.70;;;;;;;20.29;50.20;100132.25;4485560;32;34641;-75
2022/10/14 09:57:07;;;;;;;15.18;9.80;;;;;;;20.02;50.83;100137.72;4483440;32;34062;-75
2022/10/14 09:59:49;;;;;;;17.50;10.65;;;;;;;20.62;47.62;100140.47;4484571;32;34681;-75
2022/10/14 10:02:21;;;;;;;15.70;10.07;;;;;;;20.32;49.63;100138.28;4484965;32;33492;-75
2022/10/14 10:04:51;;;;;;;16.90;9.77;;;;;;;20.54;49.87;100140.34;4486614;32;33777;-75
2022/10/14 10:07:29;;;;;;;16.33;10.82;;;;;;;20.48;49.54;100139.63;4486074;32;34305;-75
2022/10/14 10:09:59;;;;;;;16.50;10.57;;;;;;;20.75;48.42;100135.25;4485830;32;34097;-75
2022/10/14 10:12:31;;;;;;;16.77;10.40;;;;;;;20.78;48.12;100138.22;4485629;32;33860;-76
2022/10/14 10:15:04;;;;;;;18.90;10.40;;;;;;;20.81;48.62;100132.09;4485368;32;33974;-75
2022/10/14 10:17:34;;;;;;;16.67;10.52;;;;;;;21.16;47.16;100126.91;4486064;32;34716;-76
2022/10/14 10:20:19;;;;;;;15.63;9.65;;;;;;;20.17;49.60;100129.19;4485836;32;33699;-75
2022/10/14 10:22:46;;;;;;;18.67;10.53;;;;;;;20.66;49.00;100135.16;4486351;32;34387;-75
2022/10/14 10:25:14;;;;;;;16.67;10.45;;;;;;;20.69;49.14;100129.03;4486092;32;33839;-75
2022/10/14 10:27:44;;;;;;;16.15;9.80;;;;;;;21.35;48.06;100121.25;4485446;32;34301;-75
2022/10/14 10:30:19;;;;;;;18.73;11.07;;;;;;;21.57;45.76;100122.44;4484671;32;33787;-75
2022/10/14 10:33:04;;;;;;;14.45;9.63;;;;;;;21.23;47.47;100121.81;4486068;32;34342;-75
2022/10/14 10:35:53;;;;;;;19.10;10.55;;;;;;;21.02;48.73;100121.44;4485881;32;34847;-74
2022/10/14 10:38:23;;;;;;;18.17;10.77;;;;;;;21.03;46.86;100116.75;4485033;32;34221;-76
2022/10/14 10:41:14;;;;;;;15.18;9.93;;;;;;;21.49;47.66;100118.50;4484230;32;33925;-75
2022/10/14 10:43:56;;;;;;;14.02;9.82;;;;;;;21.35;47.25;100110.22;4484890;32;33157;-77
2022/10/14 10:46:43;;;;;;;15.60;10.27;;;;;;;21.59;46.50;100101.66;4486349;32;34149;-75
2022/10/14 10:49:37;;;;;;;13.60;9.48;;;;;;;20.83;48.11;100098.69;4485581;32;34295;-75
2022/10/14 10:52:11;;;;;;;14.32;9.50;;;;;;;21.30;47.00;100102.06;4483727;32;33381;-75
2022/10/14 10:54:52;;;;;;;14.55;10.02;;;;;;;21.26;47.45;100107.38;4485794;32;34261;-76
2022/10/14 10:57:56;;;;;;;16.00;9.70;;;;;;;21.58;46.07;100104.75;4483899;32;34923;-75
2022/10/14 11:00:24;;;;;;;13.70;9.15;;;;;;;20.79;49.60;100100.44;4483962;32;34425;-73
2022/10/14 11:03:18;;;;;;;15.55;9.98;;;;;;;20.36;49.52;100097.97;4485277;32;34824;-74
2022/10/14 11:06:00;;;;;;;13.65;9.60;;;;;;;21.21;48.68;100098.37;4485830;32;33314;-74
2022/10/14 11:12:06;;;;;;;13.73;9.38;;;;;;;21.48;46.66;100081.75;4485045;32;33986;-73
2022/10/14 11:14:45;;;;;;;16.02;9.73;;;;;;;22.10;46.15;100092.06;4484652;32;34562;-91
2022/10/14 11:17:24;;;;;;;14.38;8.65;;;;;;;22.58;44.54;100084.13;4485467;32;33517;-73
2022/10/14 11:20:13;;;;;;;19.25;10.50;;;;;;;22.43;45.12;100083.44;4485480;32;33919;-73
2022/10/14 11:22:59;;;;;;;15.05;10.15;;;;;;;21.09;46.59;100082.38;4485464;32;34189;-71
2022/10/14 11:25:41;;;;;;;13.02;8.77;;;;;;;21.41;46.59;100073.12;4485342;32;33962;-72
2022/10/14 11:28:21;;;;;;;15.07;9.77;;;;;;;21.54;46.80;100073.38;4482680;32;34151;-72
2022/10/14 11:31:18;;;;;;;15.13;9.73;;;;;;;22.50;43.91;100069.97;4485473;32;33618;-72
2022/10/14 11:34:07;;;;;;;12.55;8.77;;;;;;;22.45;44.25;100067.34;4478920;32;33858;-72
2022/10/14 11:36:54;;;;;;;15.00;9.55;;;;;;;22.40;43.51;100063.91;4485390;32;34695;-72